Time;durP1;ratioP1;P1;durP2;ratioP2;P2;SDS_P1;SDS_P2;PMS_P1;PMS_P2;Temp;Humidity;BMP_temperature;BMP_pressure;BME280_temperature;BME280_humidity;BME280_pressure;Samples;Min_cycle;Max_cycle;Signal;HPM_P1;HPM_P2
2024/04/22 00:00:48;;;;;;;6.50;2.90;;;3.70;99.90;;;;;;5458148;26;20210;-73
2024/04/22 00:03:35;;;;;;;6.20;3.03;;;3.70;99.90;;;;;;5485005;26;20211;-73
2024/04/22 00:06:24;;;;;;;6.07;2.70;;;3.70;99.90;;;;;;5485510;26;20206;-73
2024/04/22 00:09:14;;;;;;;5.17;2.97;;;3.70;99.90;;;;;;5484808;26;20230;-73
2024/04/22 00:12:02;;;;;;;5.37;2.73;;;3.70;99.90;;;;;;5485191;26;20589;-73
2024/04/22 00:14:49;;;;;;;4.27;2.70;;;3.50;99.90;;;;;;5486937;26;20261;-73
2024/04/22 00:17:37;;;;;;;4.77;2.87;;;3.50;99.90;;;;;;5485033;26;20274;-73
2024/04/22 00:20:24;;;;;;;4.43;2.80;;;3.50;99.90;;;;;;5484441;26;20226;-73
2024/04/22 00:23:11;;;;;;;5.13;2.63;;;3.60;99.90;;;;;;5458188;26;20259;-73
2024/04/22 00:26:00;;;;;;;4.87;2.97;;;3.50;99.90;;;;;;5484911;26;20211;-74
2024/04/22 00:28:48;;;;;;;4.10;3.03;;;3.50;99.90;;;;;;5459327;26;20214;-74
2024/04/22 00:31:35;;;;;;;5.43;2.90;;;3.40;99.90;;;;;;5485140;26;20222;-74
2024/04/22 00:34:23;;;;;;;4.87;2.93;;;3.50;99.90;;;;;;5463880;26;20782;-74
2024/04/22 00:37:10;;;;;;;6.33;3.10;;;3.40;99.90;;;;;;5462546;26;20260;-74
2024/04/22 00:39:58;;;;;;;5.63;3.10;;;3.30;99.90;;;;;;5488343;26;20786;-74
2024/04/22 00:42:48;;;;;;;3.70;2.97;;;3.30;99.90;;;;;;5488748;26;20261;-74
2024/04/22 00:45:36;;;;;;;5.30;3.07;;;3.40;99.90;;;;;;5487412;26;20216;-74
2024/04/22 00:48:24;;;;;;;4.97;3.20;;;3.40;99.90;;;;;;5461683;26;20214;-74
2024/04/22 00:51:12;;;;;;;4.70;2.60;;;3.30;99.90;;;;;;5486046;26;20223;-74
2024/04/22 00:54:00;;;;;;;6.00;2.60;;;3.40;99.90;;;;;;5463541;26;20682;-74
2024/04/22 00:56:48;;;;;;;4.60;2.70;;;3.20;99.90;;;;;;5488007;26;20216;-74
2024/04/22 00:59:35;;;;;;;3.70;2.70;;;3.40;99.90;;;;;;5488816;26;20731;-74
2024/04/22 01:02:24;;;;;;;3.90;2.50;;;3.40;99.90;;;;;;5489203;26;20824;-73
2024/04/22 01:05:11;;;;;;;5.57;2.73;;;3.50;99.90;;;;;;5487822;26;20233;-73
2024/04/22 01:07:59;;;;;;;4.10;2.77;;;3.40;99.90;;;;;;5489034;26;20294;-73
2024/04/22 01:10:46;;;;;;;3.77;2.40;;;3.50;99.90;;;;;;5451793;26;20227;-72
2024/04/22 01:13:34;;;;;;;6.00;2.47;;;3.50;99.90;;;;;;5453496;26;20259;-72
2024/04/22 01:16:21;;;;;;;5.03;2.87;;;3.30;99.90;;;;;;5452278;26;20207;-73
2024/04/22 01:19:09;;;;;;;4.60;2.57;;;3.20;99.90;;;;;;5451050;26;20568;-74
2024/04/22 01:21:56;;;;;;;5.20;2.60;;;3.10;99.90;;;;;;5451807;26;20215;-74
2024/04/22 01:24:44;;;;;;;4.53;2.60;;;3.20;99.90;;;;;;5452360;26;20710;-73
2024/04/22 01:27:32;;;;;;;3.67;2.40;;;3.00;99.90;;;;;;5452363;26;20283;-74
2024/04/22 01:30:20;;;;;;;4.47;2.53;;;3.10;99.90;;;;;;5452213;26;20750;-74
2024/04/22 01:33:07;;;;;;;4.17;2.40;;;3.30;99.90;;;;;;5452015;26;20213;-73
2024/04/22 01:35:55;;;;;;;4.53;3.00;;;3.30;99.90;;;;;;5453239;26;20610;-73
2024/04/22 01:38:42;;;;;;;3.83;2.27;;;3.30;99.90;;;;;;5452945;26;20298;-74
2024/04/22 01:41:30;;;;;;;4.03;2.50;;;3.20;99.90;;;;;;5450422;26;20362;-74
2024/04/22 01:44:17;;;;;;;3.40;2.50;;;3.30;99.90;;;;;;5450447;26;20258;-73
2024/04/22 01:47:04;;;;;;;3.23;2.50;;;3.30;99.90;;;;;;5450566;26;20622;-73
2024/04/22 01:49:52;;;;;;;4.30;2.17;;;3.00;99.90;;;;;;5450230;26;20646;-73
2024/04/22 01:52:39;;;;;;;4.73;2.43;;;3.20;99.90;;;;;;5451165;26;20211;-73
2024/04/22 01:55:27;;;;;;;3.40;2.23;;;3.20;99.90;;;;;;5450465;26;20218;-73
2024/04/22 01:58:14;;;;;;;4.53;2.60;;;2.90;99.90;;;;;;5453719;26;20223;-73
2024/04/22 02:01:07;;;;;;;5.37;2.37;;;2.80;99.90;;;;;;5452693;26;20739;-72
2024/04/22 02:03:54;;;;;;;6.10;2.67;;;2.80;99.90;;;;;;5451644;26;20260;-73
2024/04/22 02:06:42;;;;;;;5.17;2.77;;;3.00;99.90;;;;;;5451900;26;20213;-74
2024/04/22 02:09:29;;;;;;;3.87;2.50;;;3.10;99.90;;;;;;5465784;26;20271;-74
2024/04/22 02:12:17;;;;;;;4.77;2.57;;;3.00;99.90;;;;;;5486051;26;20560;-73
2024/04/22 02:15:04;;;;;;;5.03;2.60;;;2.80;99.90;;;;;;5460329;26;20210;-74
2024/04/22 02:17:52;;;;;;;2.93;2.23;;;2.90;99.90;;;;;;5485928;26;20318;-74
2024/04/22 02:20:39;;;;;;;4.17;2.63;;;3.00;99.90;;;;;;5485659;26;20769;-73
2024/04/22 02:23:27;;;;;;;3.20;2.30;;;3.00;99.90;;;;;;5486932;26;20981;-73
2024/04/22 02:26:14;;;;;;;4.30;2.40;;;2.90;99.90;;;;;;5486317;26;20626;-73
2024/04/22 02:29:01;;;;;;;3.57;2.50;;;2.70;99.90;;;;;;5460914;26;20567;-74
2024/04/22 02:31:49;;;;;;;3.90;2.53;;;2.70;99.90;;;;;;5486796;26;20745;-73
2024/04/22 02:34:36;;;;;;;3.97;2.30;;;2.70;99.90;;;;;;5459565;26;20277;-74
2024/04/22 02:37:23;;;;;;;5.20;2.60;;;2.90;99.90;;;;;;5487539;26;20210;-73
2024/04/22 02:40:11;;;;;;;3.90;2.60;;;2.90;99.90;;;;;;5487765;26;20274;-74
2024/04/22 02:42:58;;;;;;;3.93;2.50;;;2.80;99.90;;;;;;5486294;26;20214;-73
2024/04/22 02:45:46;;;;;;;3.47;2.80;;;2.80;99.90;;;;;;5462306;26;20665;-74
2024/04/22 02:48:33;;;;;;;4.57;2.60;;;2.80;99.90;;;;;;5486166;26;20259;-74
2024/04/22 02:51:21;;;;;;;3.73;2.40;;;2.80;99.90;;;;;;5486494;26;20226;-74
2024/04/22 02:54:08;;;;;;;3.27;2.40;;;2.90;99.90;;;;;;5485903;26;20214;-73
2024/04/22 02:56:56;;;;;;;3.77;2.27;;;2.80;99.90;;;;;;5459865;26;20266;-73
2024/04/22 02:59:43;;;;;;;4.60;2.63;;;2.70;99.90;;;;;;5486535;26;20271;-74
2024/04/22 03:02:30;;;;;;;4.00;2.43;;;2.60;99.90;;;;;;5485807;26;20747;-73
2024/04/22 03:05:18;;;;;;;4.33;2.87;;;2.60;99.90;;;;;;5487166;26;20231;-74
2024/04/22 03:08:08;;;;;;;4.27;2.60;;;2.60;99.90;;;;;;5487035;26;20778;-74
2024/04/22 03:10:58;;;;;;;4.00;2.60;;;2.80;99.90;;;;;;5486866;26;20226;-73
2024/04/22 03:13:46;;;;;;;3.97;2.27;;;2.90;99.90;;;;;;5460574;26;20761;-73
2024/04/22 03:16:36;;;;;;;4.43;2.50;;;3.00;99.90;;;;;;5484764;26;20250;-73
2024/04/22 03:19:24;;;;;;;4.50;2.97;;;3.10;99.90;;;;;;5460162;26;20303;-73
2024/04/22 03:22:11;;;;;;;3.27;2.40;;;3.10;99.90;;;;;;5485897;26;20282;-73
2024/04/22 03:24:59;;;;;;;4.57;2.50;;;3.10;99.90;;;;;;5485580;26;20261;-74
2024/04/22 03:27:47;;;;;;;4.37;2.43;;;3.10;99.90;;;;;;5486987;26;20220;-74
2024/04/22 03:30:34;;;;;;;4.83;2.77;;;2.90;99.90;;;;;;5486462;26;20280;-74
2024/04/22 03:33:22;;;;;;;3.67;2.70;;;2.80;99.90;;;;;;5460173;26;20215;-73
2024/04/22 03:36:09;;;;;;;4.57;2.77;;;2.80;99.90;;;;;;5459530;26;20339;-74
2024/04/22 03:38:57;;;;;;;3.83;2.30;;;2.90;99.90;;;;;;5487766;26;20256;-74
2024/04/22 03:41:44;;;;;;;4.60;2.30;;;3.00;99.90;;;;;;5460323;26;20760;-74
2024/04/22 03:44:31;;;;;;;5.40;2.60;;;3.10;99.90;;;;;;5486503;26;20214;-74
2024/04/22 03:50:25;;;;;;;4.83;2.40;;;3.00;99.90;;;;;;5484594;26;20676;-74
2024/04/22 03:53:12;;;;;;;4.23;3.00;;;2.90;99.90;;;;;;5485245;26;20208;-74
2024/04/22 03:56:00;;;;;;;6.87;2.63;;;2.80;99.90;;;;;;5460196;26;20270;-74
2024/04/22 03:58:47;;;;;;;3.37;2.73;;;2.80;99.90;;;;;;5485078;26;20211;-74
2024/04/22 04:01:34;;;;;;;4.77;2.80;;;2.70;99.90;;;;;;5485293;26;20210;-73
2024/04/22 04:04:22;;;;;;;5.30;2.70;;;2.70;99.90;;;;;;5483451;26;20720;-72
2024/04/22 04:07:10;;;;;;;4.10;2.70;;;2.80;99.90;;;;;;5486066;26;20218;-72
2024/04/22 04:09:57;;;;;;;3.93;2.70;;;2.80;99.90;;;;;;5484197;26;20790;-73
2024/04/22 04:12:45;;;;;;;5.70;3.07;;;2.90;99.90;;;;;;5484333;26;20254;-73
2024/04/22 04:15:33;;;;;;;4.27;2.93;;;3.00;99.90;;;;;;5485731;26;20256;-73
2024/04/22 04:18:20;;;;;;;4.20;2.63;;;3.00;99.90;;;;;;5485611;26;20210;-73
2024/04/22 04:21:08;;;;;;;4.83;2.80;;;3.00;99.90;;;;;;5485743;26;20567;-73
2024/04/22 04:23:55;;;;;;;5.30;2.80;;;2.90;99.90;;;;;;5483501;26;20708;-73
2024/04/22 04:26:43;;;;;;;4.30;2.97;;;2.80;99.90;;;;;;5484884;26;20268;-78
2024/04/22 04:29:31;;;;;;;4.43;2.63;;;2.80;99.90;;;;;;5460379;26;20315;-72
2024/04/22 04:32:19;;;;;;;5.67;3.17;;;2.80;99.90;;;;;;5459174;26;20281;-73
2024/04/22 04:35:06;;;;;;;3.87;2.57;;;2.70;99.90;;;;;;5484406;26;20331;-73
2024/04/22 04:37:54;;;;;;;5.53;2.90;;;2.80;99.90;;;;;;5484601;26;20211;-73
2024/04/22 04:40:42;;;;;;;4.23;2.77;;;2.90;99.90;;;;;;5460169;26;20519;-73
2024/04/22 04:43:30;;;;;;;4.80;2.90;;;3.00;99.90;;;;;;5458969;26;20214;-73
2024/04/22 04:46:18;;;;;;;4.17;2.73;;;3.20;99.90;;;;;;5457355;26;20256;-74
2024/04/22 04:49:05;;;;;;;6.80;3.00;;;3.30;99.90;;;;;;5483748;26;20694;-73
2024/04/22 04:51:52;;;;;;;6.67;3.00;;;3.10;99.90;;;;;;5486234;26;20212;-73
2024/04/22 04:54:40;;;;;;;4.73;2.70;;;2.80;99.90;;;;;;5421847;26;20218;-73
2024/04/22 04:57:27;;;;;;;5.27;3.10;;;2.90;99.90;;;;;;5449680;26;20212;-73
2024/04/22 05:00:15;;;;;;;5.30;3.03;;;3.00;99.90;;;;;;5447978;26;20323;-73
2024/04/22 05:03:02;;;;;;;7.33;3.10;;;2.90;99.90;;;;;;5449132;26;20275;-73
2024/04/22 05:06:00;;;;;;;4.57;2.60;;;2.90;99.90;;;;;;5450152;26;20719;-74
2024/04/22 05:08:47;;;;;;;7.60;2.80;;;3.10;99.90;;;;;;5424416;26;20215;-73
2024/04/22 05:11:35;;;;;;;5.10;3.07;;;3.20;99.90;;;;;;5425306;26;20319;-73
2024/04/22 05:14:22;;;;;;;4.80;3.30;;;3.30;99.90;;;;;;5447400;26;20216;-73
2024/04/22 05:17:10;;;;;;;4.67;2.90;;;3.30;99.90;;;;;;5425071;26;20255;-73
2024/04/22 05:19:58;;;;;;;7.53;3.13;;;3.10;99.90;;;;;;5453337;26;20332;-73
2024/04/22 05:22:46;;;;;;;4.33;2.67;;;3.10;99.90;;;;;;5452092;26;20730;-73
2024/04/22 05:25:39;;;;;;;3.97;2.80;;;3.20;99.90;;;;;;5452261;26;20254;-73
2024/04/22 05:28:27;;;;;;;5.37;3.00;;;3.20;99.90;;;;;;5452093;26;20223;-73
2024/04/22 05:31:15;;;;;;;5.13;3.20;;;3.20;99.90;;;;;;5452984;26;20700;-73
2024/04/22 05:37:09;;;;;;;4.63;2.93;;;3.20;99.90;;;;;;5450956;26;20227;-74
2024/04/22 05:39:56;;;;;;;4.67;3.20;;;3.40;99.90;;;;;;5452815;26;20788;-73
2024/04/22 05:42:44;;;;;;;4.43;3.07;;;3.40;99.90;;;;;;5452134;26;20731;-73
2024/04/22 05:45:32;;;;;;;5.57;3.37;;;3.60;99.90;;;;;;5427679;26;20556;-73
2024/04/22 05:48:20;;;;;;;7.13;3.60;;;3.60;99.90;;;;;;5425722;26;20216;-73
2024/04/22 05:51:08;;;;;;;5.03;3.43;;;3.70;99.90;;;;;;5425287;26;20754;-73
2024/04/22 05:53:55;;;;;;;4.70;3.40;;;3.60;99.90;;;;;;5451278;26;20219;-73
2024/04/22 05:56:43;;;;;;;5.70;3.53;;;3.70;99.90;;;;;;5452510;26;20216;-73
2024/04/22 05:59:32;;;;;;;4.53;3.30;;;3.90;99.90;;;;;;5427557;26;20804;-74
2024/04/22 06:02:20;;;;;;;5.50;3.30;;;3.70;99.90;;;;;;5450805;26;20262;-73
2024/04/22 06:05:08;;;;;;;5.00;3.47;;;3.80;99.90;;;;;;5451378;26;20295;-73
2024/04/22 06:07:55;;;;;;;6.30;3.43;;;3.90;99.90;;;;;;5426408;26;20714;-73
2024/04/22 06:10:43;;;;;;;5.70;3.70;;;3.90;99.90;;;;;;5450426;26;20288;-73
2024/04/22 06:13:31;;;;;;;4.97;3.60;;;3.90;99.90;;;;;;5451108;26;20272;-73
2024/04/22 06:16:18;;;;;;;6.70;3.83;;;4.00;99.90;;;;;;5452126;26;20221;-73
2024/04/22 06:19:07;;;;;;;6.87;3.70;;;4.10;99.90;;;;;;5426541;26;20213;-73
2024/04/22 06:21:55;;;;;;;5.87;3.67;;;3.90;99.90;;;;;;5426143;26;20238;-73
2024/04/22 06:24:42;;;;;;;5.73;3.67;;;3.90;99.90;;;;;;5451146;26;20732;-73
2024/04/22 06:27:30;;;;;;;6.50;4.20;;;3.70;99.90;;;;;;5451223;26;20219;-73
2024/04/22 06:30:18;;;;;;;7.27;3.77;;;3.50;99.90;;;;;;5448974;26;20436;-73
2024/04/22 06:33:05;;;;;;;6.80;3.90;;;3.80;99.90;;;;;;5478860;26;20213;-73
2024/04/22 06:35:53;;;;;;;6.27;3.70;;;4.20;99.90;;;;;;5461012;26;20303;-74
2024/04/22 06:38:42;;;;;;;6.07;4.00;;;4.50;99.90;;;;;;5458063;26;20273;-73
2024/04/22 06:41:29;;;;;;;4.97;3.27;;;4.80;99.90;;;;;;5487268;26;20326;-74
2024/04/22 06:44:17;;;;;;;4.93;3.30;;;4.70;99.90;;;;;;5461813;26;20379;-73
2024/04/22 06:47:04;;;;;;;4.30;3.30;;;5.00;99.90;;;;;;5486041;26;20620;-73
2024/04/22 06:49:52;;;;;;;4.53;3.37;;;4.90;99.90;;;;;;5436737;26;20577;-74
2024/04/22 06:52:40;;;;;;;5.00;3.20;;;4.70;99.90;;;;;;5426875;26;20801;-73
2024/04/22 06:55:27;;;;;;;6.50;3.27;;;4.80;99.90;;;;;;5453214;26;20860;-73
2024/04/22 06:58:14;;;;;;;4.50;3.27;;;5.10;99.90;;;;;;5451868;26;20612;-73
2024/04/22 07:01:02;;;;;;;8.03;3.50;;;4.90;99.90;;;;;;5450216;26;20215;-73
2024/04/22 07:03:49;;;;;;;5.93;3.00;;;5.20;99.90;;;;;;5450637;26;20221;-73
2024/04/22 07:06:37;;;;;;;4.33;3.00;;;5.50;99.90;;;;;;5449346;26;20331;-73
2024/04/22 07:09:25;;;;;;;3.60;2.60;;;5.50;99.90;;;;;;5486852;26;20763;-73
2024/04/22 07:12:13;;;;;;;3.83;3.00;;;5.70;99.90;;;;;;5461064;26;20216;-73
2024/04/22 07:15:01;;;;;;;5.20;2.80;;;5.20;99.90;;;;;;5487081;26;20544;-73
2024/04/22 07:17:49;;;;;;;3.97;2.70;;;5.30;99.90;;;;;;5460639;26;20215;-73
2024/04/22 07:20:36;;;;;;;4.50;2.77;;;5.60;99.90;;;;;;5461238;26;20317;-73
2024/04/22 07:23:24;;;;;;;6.00;2.90;;;5.80;99.90;;;;;;5485948;26;20584;-73
2024/04/22 07:26:11;;;;;;;6.27;3.10;;;5.90;99.90;;;;;;5460066;26;20215;-73
2024/04/22 07:28:59;;;;;;;4.63;2.60;;;5.60;99.90;;;;;;5485682;26;20283;-73
2024/04/22 07:31:47;;;;;;;4.27;2.70;;;5.70;99.90;;;;;;5458405;26;20259;-73
2024/04/22 07:34:35;;;;;;;3.23;2.43;;;5.50;99.90;;;;;;5458070;26;20347;-73
2024/04/22 07:37:35;;;;;;;4.77;3.00;;;5.50;99.90;;;;;;5486725;26;20321;-73
2024/04/22 07:40:23;;;;;;;3.67;2.73;;;5.40;99.90;;;;;;5458969;26;20228;-73
2024/04/22 07:43:11;;;;;;;4.53;3.00;;;5.60;99.90;;;;;;5484231;26;20340;-74
2024/04/22 07:45:59;;;;;;;4.23;2.50;;;5.80;99.90;;;;;;5458501;26;20210;-73
2024/04/22 07:48:46;;;;;;;4.57;2.50;;;5.90;99.90;;;;;;5485184;26;20223;-73
2024/04/22 07:51:54;;;;;;;6.63;3.03;;;5.90;99.90;;;;;;5484719;26;20213;-73
2024/04/22 07:54:42;;;;;;;3.77;2.90;;;5.80;99.90;;;;;;5308237;27;20220;-73
2024/04/22 07:57:30;;;;;;;3.10;2.60;;;6.00;99.90;;;;;;5308266;27;20243;-73
2024/04/22 08:00:19;;;;;;;3.97;2.80;;;5.90;99.90;;;;;;5283651;27;20233;-73
2024/04/22 08:03:07;;;;;;;5.53;2.80;;;6.10;99.90;;;;;;5308050;27;20281;-73
2024/04/22 08:05:58;;;;;;;4.80;2.90;;;6.00;99.90;;;;;;5308316;26;20284;-73
2024/04/22 08:08:45;;;;;;;3.97;2.90;;;6.00;99.90;;;;;;5307880;27;20263;-73
2024/04/22 08:11:33;;;;;;;5.07;2.97;;;6.00;99.90;;;;;;5284414;27;20703;-74
2024/04/22 08:14:21;;;;;;;4.17;2.63;;;6.20;99.90;;;;;;5284161;27;20368;-73
2024/04/22 08:17:09;;;;;;;3.90;2.60;;;6.20;99.90;;;;;;5307086;27;20334;-73
2024/04/22 08:19:56;;;;;;;5.70;2.80;;;6.00;99.90;;;;;;5308035;26;20720;-73
2024/04/22 08:22:45;;;;;;;3.67;2.30;;;5.90;99.90;;;;;;5307054;27;20577;-74
2024/04/22 08:25:34;;;;;;;4.40;2.60;;;5.70;99.90;;;;;;5283568;27;20331;-74
2024/04/22 08:28:23;;;;;;;4.90;2.70;;;5.40;99.90;;;;;;5306839;27;20224;-73
2024/04/22 08:31:11;;;;;;;3.13;2.47;;;5.70;99.90;;;;;;5338421;26;20630;-74
2024/04/22 08:33:58;;;;;;;3.63;2.50;;;5.90;99.90;;;;;;5484221;26;20224;-73
2024/04/22 08:36:46;;;;;;;3.20;2.27;;;6.00;99.90;;;;;;5459235;26;20324;-73
2024/04/22 08:39:33;;;;;;;6.90;2.83;;;6.10;99.90;;;;;;5485673;26;20210;-73
2024/04/22 08:42:23;;;;;;;3.67;2.60;;;6.00;99.90;;;;;;5484915;26;20545;-73
2024/04/22 08:45:11;;;;;;;4.63;2.37;;;5.80;99.90;;;;;;5484397;26;20347;-73
2024/04/22 08:47:59;;;;;;;3.40;2.40;;;5.90;99.90;;;;;;5484493;26;20546;-73
2024/04/22 08:50:50;;;;;;;2.90;2.30;;;6.10;99.90;;;;;;5483127;26;20267;-73
2024/04/22 08:53:37;;;;;;;5.80;2.40;;;6.20;99.90;;;;;;5460771;26;20212;-73
2024/04/22 08:56:28;;;;;;;6.30;2.33;;;6.10;99.90;;;;;;5461441;26;20215;-73
2024/04/22 08:59:15;;;;;;;6.90;2.40;;;5.80;99.90;;;;;;5487778;26;20263;-74
2024/04/22 09:02:20;;;;;;;4.57;2.17;;;5.70;99.90;;;;;;5487667;26;20227;-74
2024/04/22 09:05:10;;;;;;;3.30;2.10;;;5.80;99.90;;;;;;5488434;26;20823;-73
2024/04/22 09:07:58;;;;;;;4.83;2.30;;;5.40;99.90;;;;;;5486863;26;20680;-74
2024/04/22 09:10:53;;;;;;;4.43;2.13;;;5.30;99.90;;;;;;5488179;26;20277;-74
2024/04/22 09:14:01;;;;;;;4.20;2.40;;;5.20;99.90;;;;;;5486254;26;20262;-74
2024/04/22 09:16:50;;;;;;;2.90;2.20;;;5.30;99.90;;;;;;5488563;26;20217;-74
2024/04/22 09:19:43;;;;;;;4.77;2.47;;;5.60;99.90;;;;;;5487589;26;20278;-73
2024/04/22 09:22:31;;;;;;;4.07;2.10;;;5.60;99.90;;;;;;5487237;26;20215;-74
2024/04/22 09:25:19;;;;;;;3.77;2.30;;;5.60;99.90;;;;;;5488443;26;20548;-73
2024/04/22 09:28:07;;;;;;;5.63;2.20;;;5.50;99.90;;;;;;5487829;26;20685;-73
2024/04/22 09:30:57;;;;;;;4.17;2.30;;;5.70;99.90;;;;;;5488704;26;20215;-74
2024/04/22 09:33:46;;;;;;;3.60;2.03;;;5.70;99.90;;;;;;5487402;26;20276;-73
2024/04/22 09:36:34;;;;;;;3.27;2.33;;;5.60;99.90;;;;;;5486640;26;20566;-73
2024/04/22 09:39:22;;;;;;;3.13;2.20;;;5.50;99.90;;;;;;5486219;26;20258;-73
2024/04/22 09:42:12;;;;;;;3.10;2.17;;;5.40;99.90;;;;;;5462727;26;20215;-73
2024/04/22 09:45:01;;;;;;;3.97;2.30;;;5.20;99.90;;;;;;5461689;26;20226;-74
2024/04/22 09:47:50;;;;;;;3.87;2.10;;;5.40;99.90;;;;;;5486445;26;20260;-73
2024/04/22 09:50:39;;;;;;;3.60;1.90;;;5.60;99.90;;;;;;5462525;26;20256;-73
2024/04/22 09:53:27;;;;;;;2.57;2.20;;;5.70;99.90;;;;;;5486048;26;20223;-73
2024/04/22 09:56:27;;;;;;;2.47;1.80;;;5.70;99.90;;;;;;5487003;26;20810;-73
2024/04/22 09:59:17;;;;;;;2.53;1.70;;;5.80;99.90;;;;;;5487186;26;20704;-74
2024/04/22 10:02:05;;;;;;;3.37;1.90;;;6.00;99.90;;;;;;5486597;26;20217;-73
2024/04/22 10:04:53;;;;;;;4.33;1.80;;;5.90;99.90;;;;;;5486669;26;20611;-73
2024/04/22 10:07:41;;;;;;;2.13;1.63;;;5.70;99.90;;;;;;5487238;26;20216;-74
2024/04/22 10:10:28;;;;;;;1.93;1.67;;;5.70;99.90;;;;;;5488161;26;20718;-74
2024/04/22 10:13:23;;;;;;;3.57;1.90;;;5.70;99.90;;;;;;5485898;26;20217;-74
2024/04/22 10:16:15;;;;;;;2.77;1.80;;;5.80;99.90;;;;;;5486898;26;20264;-74
2024/04/22 10:19:03;;;;;;;3.23;1.90;;;5.80;99.90;;;;;;5486732;26;20258;-74
2024/04/22 10:21:51;;;;;;;3.83;1.80;;;5.80;99.90;;;;;;5486917;26;20259;-74
2024/04/22 10:24:40;;;;;;;2.27;1.83;;;5.70;99.90;;;;;;5486978;26;20224;-74
2024/04/22 10:27:28;;;;;;;5.97;2.10;;;5.90;99.90;;;;;;5485593;26;20321;-75
2024/04/22 10:30:15;;;;;;;4.00;1.93;;;6.10;99.90;;;;;;5486992;26;20453;-74
2024/04/22 10:33:03;;;;;;;3.53;2.00;;;6.00;99.90;;;;;;5485573;26;20224;-74
2024/04/22 10:35:51;;;;;;;5.23;2.00;;;5.90;99.90;;;;;;5485158;26;20228;-74
2024/04/22 10:38:39;;;;;;;2.70;1.80;;;5.60;99.90;;;;;;5462271;26;20691;-74
2024/04/22 10:41:27;;;;;;;3.03;2.20;;;5.30;99.90;;;;;;5486228;26;20314;-74
2024/04/22 10:44:14;;;;;;;4.27;2.10;;;5.20;99.90;;;;;;5486196;26;20669;-73
2024/04/22 10:47:04;;;;;;;6.50;2.10;;;5.00;99.90;;;;;;5486847;26;20214;-74
2024/04/22 10:49:51;;;;;;;2.87;2.00;;;5.10;99.90;;;;;;5459418;26;20222;-74
2024/04/22 10:52:39;;;;;;;3.40;2.07;;;5.20;99.90;;;;;;5485395;26;20914;-74
2024/04/22 10:55:26;;;;;;;3.30;2.00;;;5.30;99.90;;;;;;5484914;26;20600;-74
2024/04/22 10:58:14;;;;;;;3.17;2.20;;;5.40;99.90;;;;;;5486426;26;20260;-74
2024/04/22 11:01:02;;;;;;;4.00;2.17;;;5.70;99.90;;;;;;5488086;26;20213;-74
2024/04/22 11:03:51;;;;;;;4.07;2.13;;;5.50;99.90;;;;;;5461788;26;20214;-74
2024/04/22 11:06:40;;;;;;;3.17;2.07;;;5.50;99.90;;;;;;5486211;26;20282;-75
2024/04/22 11:09:27;;;;;;;4.43;2.30;;;5.60;99.90;;;;;;5460436;26;20272;-74
2024/04/22 11:12:17;;;;;;;3.50;2.20;;;5.80;99.90;;;;;;5486976;26;20295;-74
2024/04/22 11:15:07;;;;;;;2.87;2.07;;;5.50;99.90;;;;;;5457636;26;20221;-74
2024/04/22 11:18:06;;;;;;;3.83;2.07;;;5.60;99.90;;;;;;5461401;26;20324;-74
2024/04/22 11:20:53;;;;;;;3.63;2.20;;;5.70;99.90;;;;;;5485804;26;20228;-74
2024/04/22 11:23:41;;;;;;;3.73;2.00;;;5.70;99.90;;;;;;5458783;26;20217;-74
2024/04/22 11:26:29;;;;;;;3.27;1.93;;;5.90;99.90;;;;;;5486294;26;20222;-73
2024/04/22 11:29:17;;;;;;;3.17;2.17;;;6.00;99.90;;;;;;5485913;26;20260;-74
2024/04/22 11:32:05;;;;;;;2.63;1.83;;;6.10;99.90;;;;;;5486237;26;20637;-74
2024/04/22 11:34:53;;;;;;;3.90;2.00;;;6.00;99.90;;;;;;5485651;26;20228;-74
2024/04/22 11:37:40;;;;;;;3.50;2.00;;;5.90;99.90;;;;;;5484386;26;20770;-74
2024/04/22 11:41:03;;;;;;;2.90;2.10;;;5.80;99.90;;;;;;5485916;26;20833;-74
2024/04/22 11:43:50;;;;;;;3.13;1.90;;;5.70;99.90;;;;;;5485201;26;20213;-74
2024/04/22 11:46:39;;;;;;;2.00;1.63;;;5.90;99.90;;;;;;5486958;26;20949;-74
2024/04/22 11:49:27;;;;;;;5.00;2.10;;;5.70;99.90;;;;;;5459262;26;20526;-74
2024/04/22 11:52:15;;;;;;;4.53;2.43;;;5.70;99.90;;;;;;5460935;26;20816;-73
2024/04/22 11:55:03;;;;;;;3.70;2.13;;;5.60;99.90;;;;;;5486362;26;20743;-74
2024/04/22 11:57:50;;;;;;;4.53;2.60;;;5.70;99.90;;;;;;5460978;26;20216;-74
2024/04/22 12:00:38;;;;;;;2.67;1.97;;;5.50;99.90;;;;;;5485335;26;20808;-74
2024/04/22 12:03:26;;;;;;;4.73;2.20;;;5.70;99.90;;;;;;5484269;26;20260;-73
2024/04/22 12:06:13;;;;;;;2.50;2.00;;;5.60;99.90;;;;;;5485712;26;20453;-74
2024/04/22 12:09:01;;;;;;;3.43;2.20;;;5.80;99.90;;;;;;5485290;26;20232;-74
2024/04/22 12:11:53;;;;;;;3.90;2.60;;;6.10;99.90;;;;;;5485498;26;20275;-74
2024/04/22 12:14:41;;;;;;;3.63;2.27;;;6.20;99.90;;;;;;5485415;26;20217;-74
2024/04/22 12:17:29;;;;;;;4.07;2.20;;;6.10;99.90;;;;;;5459692;26;20324;-74
2024/04/22 12:20:16;;;;;;;4.20;2.20;;;6.00;99.90;;;;;;5486173;26;20256;-74
2024/04/22 12:23:04;;;;;;;3.00;2.03;;;6.20;99.90;;;;;;5485930;26;20213;-74
2024/04/22 12:25:53;;;;;;;3.07;2.43;;;6.20;99.90;;;;;;5460315;26;20242;-73
2024/04/22 12:28:41;;;;;;;3.10;2.23;;;6.20;99.90;;;;;;5463837;26;20216;-74
2024/04/22 12:31:28;;;;;;;3.63;2.10;;;6.20;99.90;;;;;;5488053;26;20255;-74
2024/04/22 12:34:16;;;;;;;3.87;2.27;;;6.30;99.90;;;;;;5488357;26;20379;-74
2024/04/22 12:37:03;;;;;;;2.67;2.03;;;6.60;99.90;;;;;;5488154;26;20260;-74
2024/04/22 12:39:51;;;;;;;3.47;2.47;;;6.40;99.90;;;;;;5489479;26;20219;-74
2024/04/22 12:42:38;;;;;;;2.70;2.20;;;6.40;99.90;;;;;;5489177;26;20262;-74
2024/04/22 12:45:26;;;;;;;3.67;2.30;;;6.60;99.90;;;;;;5488324;26;20292;-74
2024/04/22 12:51:20;;;;;;;4.00;2.47;;;6.30;99.90;;;;;;5487397;26;20209;-74
2024/04/22 12:54:07;;;;;;;3.03;2.23;;;6.40;99.90;;;;;;5462381;26;20600;-74
2024/04/22 12:56:56;;;;;;;3.53;2.43;;;6.10;99.90;;;;;;5462460;26;20216;-74
2024/04/22 12:59:43;;;;;;;4.00;2.30;;;6.40;99.90;;;;;;5487962;26;20627;-74
2024/04/22 13:10:27;;;;;;;4.13;2.20;;;6.60;99.90;;;;;;5489774;26;20302;-74
2024/04/22 13:13:16;;;;;;;4.80;2.53;;;6.50;99.90;;;;;;5463477;26;20263;-74
2024/04/22 13:24:16;;;;;;;3.80;2.50;;;6.30;99.90;;;;;;5490946;26;20273;-74
2024/04/22 13:31:29;;;;;;;3.07;2.60;;;6.50;99.90;;;;;;5487480;26;20217;-74
2024/04/22 13:38:40;;;;;;;3.30;2.50;;;6.50;99.90;;;;;;5490310;26;20239;-73
2024/04/22 13:50:15;;;;;;;3.17;2.50;;;6.90;99.90;;;;;;5486078;26;20288;-74
2024/04/22 13:53:45;;;;;;;4.97;2.43;;;6.80;99.90;;;;;;5489071;26;20213;-74
2024/04/22 14:05:36;;;;;;;4.67;2.87;;;7.10;99.90;;;;;;5489608;26;20229;-75
2024/04/22 14:08:52;;;;;;;5.30;3.00;;;6.80;99.90;;;;;;5462463;26;20225;-75
2024/04/22 14:12:41;;;;;;;3.67;2.67;;;6.50;99.90;;;;;;5418007;26;20218;-69
2024/04/22 14:19:45;;;;;;;4.10;3.00;;;6.10;99.90;;;;;;5414479;26;20273;-81
2024/04/22 14:27:26;;;;;;;4.27;2.97;;;6.30;99.90;;;;;;5418508;26;20587;-83
2024/04/22 14:59:44;;;;;;;4.33;3.00;;;6.30;99.90;;;;;;5417986;26;20222;-81
2024/04/22 15:11:50;;;;;;;5.57;3.43;;;6.70;99.90;;;;;;5484884;26;20234;-80
2024/04/22 15:15:45;;;;;;;5.00;3.73;;;6.50;99.90;;;;;;5490293;26;20259;-79
2024/04/22 15:22:40;;;;;;;7.30;4.50;;;6.10;99.90;;;;;;5489233;26;20253;-78
2024/04/22 15:25:31;;;;;;;7.27;4.63;;;6.20;99.90;;;;;;5435677;26;20215;-78
2024/04/22 15:28:19;;;;;;;7.53;4.43;;;6.10;99.90;;;;;;5459212;26;20257;-78
2024/04/22 15:31:06;;;;;;;5.77;4.17;;;6.60;99.90;;;;;;5486095;26;20218;-78
2024/04/22 15:33:54;;;;;;;6.10;4.07;;;6.10;99.90;;;;;;5485689;26;20774;-78
2024/04/22 15:36:42;;;;;;;5.70;3.73;;;5.80;99.90;;;;;;5422858;26;20341;-79
2024/04/22 15:39:29;;;;;;;6.73;3.90;;;5.90;99.90;;;;;;5423001;26;20272;-78
2024/04/22 15:46:24;;;;;;;6.60;3.80;;;5.80;99.90;;;;;;5453664;26;20268;-79
2024/04/22 15:53:40;;;;;;;5.60;3.97;;;5.60;99.90;;;;;;5449997;26;20788;-78
2024/04/22 16:01:00;;;;;;;7.67;3.70;;;5.50;99.90;;;;;;5452939;26;20216;-79
2024/04/22 16:04:37;;;;;;;8.50;3.67;;;5.70;99.90;;;;;;5434133;26;20259;-78
2024/04/22 16:08:26;;;;;;;6.90;3.80;;;5.70;99.90;;;;;;5452540;26;20259;-79
2024/04/22 16:16:01;;;;;;;7.30;3.77;;;5.60;99.90;;;;;;5415150;26;20231;-79
2024/04/22 16:19:32;;;;;;;8.23;4.10;;;5.60;99.90;;;;;;5414640;26;20300;-78
2024/04/22 16:23:08;;;;;;;6.63;4.10;;;5.50;99.90;;;;;;5391805;26;20269;-79
2024/04/22 16:26:33;;;;;;;7.87;4.27;;;5.30;99.90;;;;;;5388443;26;20219;-79
2024/04/22 16:30:27;;;;;;;7.80;4.33;;;5.40;99.90;;;;;;5418755;26;20218;-77
2024/04/22 16:33:34;;;;;;;8.33;4.57;;;5.40;99.90;;;;;;5413845;26;20212;-79
2024/04/22 16:41:20;;;;;;;6.43;4.30;;;5.20;99.90;;;;;;5416618;26;20290;-79
2024/04/22 16:52:50;;;;;;;6.80;4.60;;;5.30;99.90;;;;;;5412648;26;20213;-79
2024/04/22 17:08:03;;;;;;;9.63;4.70;;;5.10;99.90;;;;;;5414642;26;20216;-78
2024/04/22 17:11:36;;;;;;;7.50;4.70;;;5.10;99.90;;;;;;5396943;26;20350;-78
2024/04/22 17:15:10;;;;;;;10.97;5.47;;;5.00;99.90;;;;;;5454170;26;20293;-78
2024/04/22 17:19:10;;;;;;;10.67;5.23;;;5.00;99.90;;;;;;5454985;26;20271;-79
2024/04/22 17:30:52;;;;;;;8.43;5.00;;;4.90;99.90;;;;;;5455796;26;20237;-80
2024/04/22 17:42:34;;;;;;;10.10;5.70;;;4.90;99.90;;;;;;5455702;26;20296;-80
2024/04/22 17:45:40;;;;;;;9.87;5.57;;;4.70;99.90;;;;;;5453076;26;20225;-80